sensor_id;sensor_type;location;lat;lon;timestamp;P1;durP1;ratioP1;P2;durP2;ratioP2
51122;SDS011;37162;41.724;13.346;2023-09-12T00:00:05;2.25;;;1.98;;
51122;SDS011;37162;41.724;13.346;2023-09-12T00:02:31;2.63;;;2.35;;
51122;SDS011;37162;41.724;13.346;2023-09-12T00:04:57;2.30;;;2.10;;
51122;SDS011;37162;41.724;13.346;2023-09-12T00:07:22;2.78;;;2.20;;
51122;SDS011;37162;41.724;13.346;2023-09-12T00:09:47;2.05;;;1.88;;
51122;SDS011;37162;41.724;13.346;2023-09-12T00:12:14;3.13;;;2.28;;
51122;SDS011;37162;41.724;13.346;2023-09-12T00:14:40;2.22;;;2.03;;
51122;SDS011;37162;41.724;13.346;2023-09-12T00:17:05;3.13;;;2.20;;
51122;SDS011;37162;41.724;13.346;2023-09-12T00:19:31;3.45;;;2.20;;
51122;SDS011;37162;41.724;13.346;2023-09-12T00:21:56;2.15;;;1.85;;
51122;SDS011;37162;41.724;13.346;2023-09-12T00:24:22;2.75;;;2.00;;
51122;SDS011;37162;41.724;13.346;2023-09-12T00:26:47;2.25;;;2.05;;
51122;SDS011;37162;41.724;13.346;2023-09-12T00:29:12;4.22;;;2.20;;
51122;SDS011;37162;41.724;13.346;2023-09-12T00:31:38;2.22;;;2.03;;
51122;SDS011;37162;41.724;13.346;2023-09-12T00:34:03;2.75;;;1.90;;
51122;SDS011;37162;41.724;13.346;2023-09-12T00:36:29;2.38;;;2.08;;
51122;SDS011;37162;41.724;13.346;2023-09-12T00:38:54;3.03;;;2.30;;
51122;SDS011;37162;41.724;13.346;2023-09-12T00:41:20;2.15;;;1.90;;
51122;SDS011;37162;41.724;13.346;2023-09-12T00:43:46;2.15;;;2.00;;
51122;SDS011;37162;41.724;13.346;2023-09-12T00:46:12;2.22;;;2.00;;
51122;SDS011;37162;41.724;13.346;2023-09-12T00:51:08;2.40;;;2.17;;
51122;SDS011;37162;41.724;13.346;2023-09-12T00:53:35;2.88;;;2.30;;
51122;SDS011;37162;41.724;13.346;2023-09-12T00:56:00;2.30;;;2.08;;
51122;SDS011;37162;41.724;13.346;2023-09-12T00:58:26;2.17;;;1.98;;
51122;SDS011;37162;41.724;13.346;2023-09-12T01:00:52;1.80;;;1.70;;
51122;SDS011;37162;41.724;13.346;2023-09-12T01:03:18;2.20;;;2.00;;
51122;SDS011;37162;41.724;13.346;2023-09-12T01:05:44;2.28;;;2.05;;
51122;SDS011;37162;41.724;13.346;2023-09-12T01:08:11;2.30;;;2.03;;
51122;SDS011;37162;41.724;13.346;2023-09-12T01:10:36;2.80;;;2.00;;
51122;SDS011;37162;41.724;13.346;2023-09-12T01:13:02;2.45;;;2.20;;
51122;SDS011;37162;41.724;13.346;2023-09-12T01:15:28;2.20;;;2.00;;
51122;SDS011;37162;41.724;13.346;2023-09-12T01:17:53;3.25;;;1.80;;
51122;SDS011;37162;41.724;13.346;2023-09-12T01:20:21;2.03;;;1.88;;
51122;SDS011;37162;41.724;13.346;2023-09-12T01:28:15;2.10;;;1.70;;
51122;SDS011;37162;41.724;13.346;2023-09-12T01:30:42;2.95;;;2.20;;
51122;SDS011;37162;41.724;13.346;2023-09-12T01:33:08;2.20;;;2.00;;
51122;SDS011;37162;41.724;13.346;2023-09-12T01:35:34;2.42;;;2.15;;
51122;SDS011;37162;41.724;13.346;2023-09-12T01:38:00;3.00;;;2.40;;
51122;SDS011;37162;41.724;13.346;2023-09-12T01:40:33;3.08;;;2.20;;
51122;SDS011;37162;41.724;13.346;2023-09-12T01:43:07;3.13;;;2.08;;
51122;SDS011;37162;41.724;13.346;2023-09-12T01:45:33;2.47;;;2.28;;
51122;SDS011;37162;41.724;13.346;2023-09-12T01:48:00;2.55;;;2.15;;
51122;SDS011;37162;41.724;13.346;2023-09-12T01:50:26;3.50;;;2.28;;
51122;SDS011;37162;41.724;13.346;2023-09-12T01:52:53;2.55;;;1.73;;
51122;SDS011;37162;41.724;13.346;2023-09-12T01:55:19;9.00;;;2.85;;
51122;SDS011;37162;41.724;13.346;2023-09-12T01:57:46;3.05;;;2.00;;
51122;SDS011;37162;41.724;13.346;2023-09-12T02:00:12;2.60;;;2.40;;
51122;SDS011;37162;41.724;13.346;2023-09-12T02:02:38;2.38;;;2.10;;
51122;SDS011;37162;41.724;13.346;2023-09-12T02:05:09;2.35;;;1.88;;
51122;SDS011;37162;41.724;13.346;2023-09-12T02:07:40;3.25;;;2.17;;
51122;SDS011;37162;41.724;13.346;2023-09-12T02:10:07;2.55;;;2.20;;
51122;SDS011;37162;41.724;13.346;2023-09-12T02:12:32;3.33;;;2.47;;
51122;SDS011;37162;41.724;13.346;2023-09-12T02:14:58;2.55;;;2.10;;
51122;SDS011;37162;41.724;13.346;2023-09-12T02:17:23;2.95;;;2.25;;
51122;SDS011;37162;41.724;13.346;2023-09-12T02:19:49;2.95;;;2.20;;
51122;SDS011;37162;41.724;13.346;2023-09-12T02:22:14;2.85;;;2.30;;
51122;SDS011;37162;41.724;13.346;2023-09-12T02:24:40;2.30;;;1.95;;
51122;SDS011;37162;41.724;13.346;2023-09-12T02:27:05;2.40;;;2.20;;
51122;SDS011;37162;41.724;13.346;2023-09-12T02:29:31;3.08;;;2.17;;
51122;SDS011;37162;41.724;13.346;2023-09-12T02:31:57;3.22;;;2.22;;
51122;SDS011;37162;41.724;13.346;2023-09-12T02:34:23;2.72;;;2.05;;
51122;SDS011;37162;41.724;13.346;2023-09-12T02:36:49;2.67;;;2.47;;
51122;SDS011;37162;41.724;13.346;2023-09-12T02:39:14;2.47;;;2.17;;
51122;SDS011;37162;41.724;13.346;2023-09-12T02:41:40;3.80;;;2.72;;
51122;SDS011;37162;41.724;13.346;2023-09-12T02:44:05;4.07;;;2.30;;
51122;SDS011;37162;41.724;13.346;2023-09-12T02:46:31;2.55;;;2.33;;
51122;SDS011;37162;41.724;13.346;2023-09-12T02:48:57;2.70;;;2.22;;
51122;SDS011;37162;41.724;13.346;2023-09-12T02:51:23;2.67;;;2.10;;
51122;SDS011;37162;41.724;13.346;2023-09-12T02:53:50;2.75;;;2.50;;
51122;SDS011;37162;41.724;13.346;2023-09-12T02:56:15;3.30;;;2.13;;
51122;SDS011;37162;41.724;13.346;2023-09-12T02:58:41;3.47;;;2.50;;
51122;SDS011;37162;41.724;13.346;2023-09-12T03:01:06;2.58;;;2.35;;
51122;SDS011;37162;41.724;13.346;2023-09-12T03:03:31;2.45;;;2.25;;
51122;SDS011;37162;41.724;13.346;2023-09-12T03:06:00;3.53;;;2.50;;
51122;SDS011;37162;41.724;13.346;2023-09-12T03:08:30;2.58;;;2.33;;
51122;SDS011;37162;41.724;13.346;2023-09-12T03:10:55;3.05;;;2.13;;
51122;SDS011;37162;41.724;13.346;2023-09-12T03:13:22;2.25;;;2.05;;
51122;SDS011;37162;41.724;13.346;2023-09-12T03:15:49;4.00;;;2.70;;
51122;SDS011;37162;41.724;13.346;2023-09-12T03:18:14;3.42;;;2.42;;
51122;SDS011;37162;41.724;13.346;2023-09-12T03:20:40;3.08;;;2.47;;
51122;SDS011;37162;41.724;13.346;2023-09-12T03:23:06;2.75;;;2.38;;
51122;SDS011;37162;41.724;13.346;2023-09-12T03:25:35;6.53;;;3.20;;
51122;SDS011;37162;41.724;13.346;2023-09-12T03:28:01;6.00;;;2.50;;
51122;SDS011;37162;41.724;13.346;2023-09-12T03:30:27;6.90;;;2.85;;
51122;SDS011;37162;41.724;13.346;2023-09-12T03:32:52;4.22;;;2.60;;
51122;SDS011;37162;41.724;13.346;2023-09-12T03:35:18;3.17;;;2.40;;
51122;SDS011;37162;41.724;13.346;2023-09-12T03:37:43;3.83;;;2.50;;
51122;SDS011;37162;41.724;13.346;2023-09-12T03:40:09;6.75;;;3.30;;
51122;SDS011;37162;41.724;13.346;2023-09-12T03:42:36;4.47;;;2.78;;
51122;SDS011;37162;41.724;13.346;2023-09-12T03:45:01;4.28;;;3.03;;
51122;SDS011;37162;41.724;13.346;2023-09-12T03:47:28;3.00;;;2.60;;
51122;SDS011;37162;41.724;13.346;2023-09-12T03:49:53;5.80;;;3.03;;
51122;SDS011;37162;41.724;13.346;2023-09-12T03:52:19;3.42;;;2.67;;
51122;SDS011;37162;41.724;13.346;2023-09-12T03:54:44;3.10;;;2.80;;
51122;SDS011;37162;41.724;13.346;2023-09-12T03:57:10;6.75;;;3.75;;
51122;SDS011;37162;41.724;13.346;2023-09-12T03:59:35;3.42;;;3.05;;
51122;SDS011;37162;41.724;13.346;2023-09-12T04:02:02;4.82;;;2.50;;
51122;SDS011;37162;41.724;13.346;2023-09-12T04:04:30;3.42;;;3.13;;
51122;SDS011;37162;41.724;13.346;2023-09-12T04:06:56;4.85;;;2.70;;
51122;SDS011;37162;41.724;13.346;2023-09-12T04:09:21;3.67;;;2.65;;
51122;SDS011;37162;41.724;13.346;2023-09-12T04:11:47;3.03;;;2.72;;
51122;SDS011;37162;41.724;13.346;2023-09-12T04:14:13;5.00;;;2.53;;
51122;SDS011;37162;41.724;13.346;2023-09-12T04:16:39;8.60;;;2.75;;
51122;SDS011;37162;41.724;13.346;2023-09-12T04:19:05;5.75;;;2.60;;
51122;SDS011;37162;41.724;13.346;2023-09-12T04:21:30;3.15;;;2.65;;
51122;SDS011;37162;41.724;13.346;2023-09-12T04:23:55;6.13;;;3.45;;
51122;SDS011;37162;41.724;13.346;2023-09-12T04:26:21;4.43;;;3.10;;
51122;SDS011;37162;41.724;13.346;2023-09-12T04:28:47;4.15;;;2.70;;
51122;SDS011;37162;41.724;13.346;2023-09-12T04:31:12;5.50;;;2.67;;
51122;SDS011;37162;41.724;13.346;2023-09-12T04:33:38;4.40;;;2.70;;
51122;SDS011;37162;41.724;13.346;2023-09-12T04:36:03;4.70;;;2.65;;
51122;SDS011;37162;41.724;13.346;2023-09-12T04:38:29;6.60;;;3.20;;
51122;SDS011;37162;41.724;13.346;2023-09-12T04:40:57;5.20;;;2.50;;
51122;SDS011;37162;41.724;13.346;2023-09-12T04:43:28;3.10;;;2.50;;
51122;SDS011;37162;41.724;13.346;2023-09-12T04:45:53;4.57;;;2.92;;
51122;SDS011;37162;41.724;13.346;2023-09-12T04:48:19;5.25;;;2.75;;
51122;SDS011;37162;41.724;13.346;2023-09-12T04:50:44;5.15;;;3.10;;
51122;SDS011;37162;41.724;13.346;2023-09-12T04:53:10;8.05;;;2.72;;
51122;SDS011;37162;41.724;13.346;2023-09-12T04:55:36;11.10;;;3.13;;
51122;SDS011;37162;41.724;13.346;2023-09-12T04:58:01;6.82;;;2.95;;
51122;SDS011;37162;41.724;13.346;2023-09-12T05:00:27;10.02;;;3.58;;
51122;SDS011;37162;41.724;13.346;2023-09-12T05:02:52;5.57;;;2.88;;
51122;SDS011;37162;41.724;13.346;2023-09-12T05:05:18;4.60;;;3.03;;
51122;SDS011;37162;41.724;13.346;2023-09-12T05:07:43;5.13;;;2.90;;
51122;SDS011;37162;41.724;13.346;2023-09-12T05:10:09;4.82;;;2.90;;
51122;SDS011;37162;41.724;13.346;2023-09-12T05:12:34;5.47;;;3.10;;
51122;SDS011;37162;41.724;13.346;2023-09-12T05:15:00;3.25;;;2.92;;
51122;SDS011;37162;41.724;13.346;2023-09-12T05:17:25;4.80;;;2.90;;
51122;SDS011;37162;41.724;13.346;2023-09-12T05:19:50;7.95;;;3.38;;
51122;SDS011;37162;41.724;13.346;2023-09-12T05:22:16;3.40;;;3.10;;
51122;SDS011;37162;41.724;13.346;2023-09-12T05:24:41;4.60;;;3.03;;
51122;SDS011;37162;41.724;13.346;2023-09-12T05:27:07;4.72;;;3.17;;
51122;SDS011;37162;41.724;13.346;2023-09-12T05:29:32;3.72;;;3.13;;
51122;SDS011;37162;41.724;13.346;2023-09-12T05:31:58;4.85;;;3.30;;
51122;SDS011;37162;41.724;13.346;2023-09-12T05:34:23;4.25;;;2.92;;
51122;SDS011;37162;41.724;13.346;2023-09-12T05:36:48;4.15;;;3.15;;
51122;SDS011;37162;41.724;13.346;2023-09-12T05:39:14;5.30;;;3.30;;
51122;SDS011;37162;41.724;13.346;2023-09-12T05:41:39;3.30;;;2.95;;
51122;SDS011;37162;41.724;13.346;2023-09-12T05:44:05;7.18;;;2.88;;
51122;SDS011;37162;41.724;13.346;2023-09-12T05:46:30;3.47;;;2.60;;
51122;SDS011;37162;41.724;13.346;2023-09-12T05:48:56;9.30;;;3.17;;
51122;SDS011;37162;41.724;13.346;2023-09-12T05:51:21;6.38;;;3.20;;
51122;SDS011;37162;41.724;13.346;2023-09-12T05:53:46;5.32;;;2.83;;
51122;SDS011;37162;41.724;13.346;2023-09-12T05:56:12;3.47;;;2.80;;
51122;SDS011;37162;41.724;13.346;2023-09-12T05:58:37;2.45;;;2.25;;
51122;SDS011;37162;41.724;13.346;2023-09-12T06:01:07;4.80;;;2.30;;
51122;SDS011;37162;41.724;13.346;2023-09-12T06:03:33;2.78;;;2.08;;
51122;SDS011;37162;41.724;13.346;2023-09-12T06:05:58;3.60;;;2.25;;
51122;SDS011;37162;41.724;13.346;2023-09-12T06:08:24;3.38;;;2.30;;
51122;SDS011;37162;41.724;13.346;2023-09-12T06:10:49;2.80;;;2.10;;
51122;SDS011;37162;41.724;13.346;2023-09-12T06:13:18;3.08;;;2.33;;
51122;SDS011;37162;41.724;13.346;2023-09-12T06:15:44;2.78;;;2.45;;
51122;SDS011;37162;41.724;13.346;2023-09-12T06:18:10;2.53;;;2.30;;
51122;SDS011;37162;41.724;13.346;2023-09-12T06:20:35;2.38;;;2.15;;
51122;SDS011;37162;41.724;13.346;2023-09-12T06:23:01;2.22;;;2.00;;
51122;SDS011;37162;41.724;13.346;2023-09-12T06:25:26;2.83;;;2.30;;
51122;SDS011;37162;41.724;13.346;2023-09-12T06:27:54;2.47;;;2.28;;
51122;SDS011;37162;41.724;13.346;2023-09-12T06:30:19;2.33;;;2.03;;
51122;SDS011;37162;41.724;13.346;2023-09-12T06:32:44;3.53;;;3.00;;
51122;SDS011;37162;41.724;13.346;2023-09-12T06:35:10;2.78;;;2.25;;
51122;SDS011;37162;41.724;13.346;2023-09-12T06:37:36;2.45;;;2.20;;
51122;SDS011;37162;41.724;13.346;2023-09-12T06:40:03;5.72;;;2.58;;
51122;SDS011;37162;41.724;13.346;2023-09-12T06:42:29;3.47;;;2.47;;
51122;SDS011;37162;41.724;13.346;2023-09-12T06:44:54;2.53;;;2.33;;
51122;SDS011;37162;41.724;13.346;2023-09-12T06:47:19;3.35;;;2.88;;
51122;SDS011;37162;41.724;13.346;2023-09-12T06:49:45;2.53;;;2.33;;
51122;SDS011;37162;41.724;13.346;2023-09-12T06:52:10;3.58;;;2.75;;
51122;SDS011;37162;41.724;13.346;2023-09-12T06:54:36;3.20;;;2.67;;
51122;SDS011;37162;41.724;13.346;2023-09-12T06:57:01;3.65;;;2.60;;
51122;SDS011;37162;41.724;13.346;2023-09-12T06:59:27;3.85;;;2.75;;
51122;SDS011;37162;41.724;13.346;2023-09-12T07:01:52;3.78;;;2.53;;
51122;SDS011;37162;41.724;13.346;2023-09-12T07:04:18;3.85;;;2.88;;
51122;SDS011;37162;41.724;13.346;2023-09-12T07:06:43;3.30;;;3.00;;
51122;SDS011;37162;41.724;13.346;2023-09-12T07:09:09;4.70;;;3.08;;
51122;SDS011;37162;41.724;13.346;2023-09-12T07:11:36;3.63;;;2.83;;
51122;SDS011;37162;41.724;13.346;2023-09-12T07:14:02;3.72;;;2.53;;
51122;SDS011;37162;41.724;13.346;2023-09-12T07:16:29;3.03;;;2.40;;
51122;SDS011;37162;41.724;13.346;2023-09-12T07:18:55;3.15;;;2.72;;
51122;SDS011;37162;41.724;13.346;2023-09-12T07:21:21;6.03;;;2.67;;
51122;SDS011;37162;41.724;13.346;2023-09-12T07:23:47;3.92;;;2.63;;
51122;SDS011;37162;41.724;13.346;2023-09-12T07:26:13;4.70;;;2.70;;
51122;SDS011;37162;41.724;13.346;2023-09-12T07:28:39;3.80;;;2.70;;
51122;SDS011;37162;41.724;13.346;2023-09-12T07:31:05;3.05;;;2.75;;
51122;SDS011;37162;41.724;13.346;2023-09-12T07:33:31;4.78;;;3.22;;
51122;SDS011;37162;41.724;13.346;2023-09-12T07:35:56;3.42;;;2.80;;
51122;SDS011;37162;41.724;13.346;2023-09-12T07:38:22;3.33;;;2.42;;
51122;SDS011;37162;41.724;13.346;2023-09-12T07:40:47;4.05;;;2.70;;
51122;SDS011;37162;41.724;13.346;2023-09-12T07:43:13;2.90;;;2.53;;
51122;SDS011;37162;41.724;13.346;2023-09-12T07:45:38;3.33;;;2.50;;
51122;SDS011;37162;41.724;13.346;2023-09-12T07:48:05;4.00;;;3.00;;
51122;SDS011;37162;41.724;13.346;2023-09-12T07:50:36;3.50;;;2.70;;
51122;SDS011;37162;41.724;13.346;2023-09-12T07:53:03;3.08;;;2.47;;
51122;SDS011;37162;41.724;13.346;2023-09-12T07:55:34;3.03;;;2.35;;
51122;SDS011;37162;41.724;13.346;2023-09-12T07:58:11;4.90;;;2.60;;
51122;SDS011;37162;41.724;13.346;2023-09-12T08:00:37;2.92;;;2.63;;
51122;SDS011;37162;41.724;13.346;2023-09-12T08:03:03;3.13;;;2.42;;
51122;SDS011;37162;41.724;13.346;2023-09-12T08:05:28;3.10;;;2.80;;
51122;SDS011;37162;41.724;13.346;2023-09-12T08:07:54;3.10;;;2.70;;
51122;SDS011;37162;41.724;13.346;2023-09-12T08:10:20;3.75;;;2.63;;
51122;SDS011;37162;41.724;13.346;2023-09-12T08:12:45;3.25;;;2.67;;
51122;SDS011;37162;41.724;13.346;2023-09-12T08:15:11;2.97;;;2.67;;
51122;SDS011;37162;41.724;13.346;2023-09-12T08:17:36;3.75;;;3.20;;
51122;SDS011;37162;41.724;13.346;2023-09-12T08:20:01;3.85;;;2.85;;
51122;SDS011;37162;41.724;13.346;2023-09-12T08:22:27;4.28;;;2.88;;
51122;SDS011;37162;41.724;13.346;2023-09-12T08:24:53;2.97;;;2.67;;
51122;SDS011;37162;41.724;13.346;2023-09-12T08:27:18;3.30;;;3.00;;
51122;SDS011;37162;41.724;13.346;2023-09-12T08:29:44;3.63;;;2.58;;
51122;SDS011;37162;41.724;13.346;2023-09-12T08:32:11;2.58;;;2.38;;
51122;SDS011;37162;41.724;13.346;2023-09-12T08:34:37;3.53;;;3.00;;
51122;SDS011;37162;41.724;13.346;2023-09-12T08:37:02;3.08;;;2.67;;
51122;SDS011;37162;41.724;13.346;2023-09-12T08:39:36;3.10;;;2.67;;
51122;SDS011;37162;41.724;13.346;2023-09-12T08:42:06;2.60;;;2.38;;
51122;SDS011;37162;41.724;13.346;2023-09-12T08:44:36;3.58;;;2.88;;
51122;SDS011;37162;41.724;13.346;2023-09-12T08:47:02;2.65;;;2.33;;
51122;SDS011;37162;41.724;13.346;2023-09-12T08:49:30;2.88;;;2.58;;
51122;SDS011;37162;41.724;13.346;2023-09-12T08:51:58;5.10;;;3.20;;
51122;SDS011;37162;41.724;13.346;2023-09-12T08:54:23;10.27;;;2.72;;
51122;SDS011;37162;41.724;13.346;2023-09-12T08:56:49;3.15;;;2.58;;
51122;SDS011;37162;41.724;13.346;2023-09-12T08:59:15;2.60;;;2.40;;
51122;SDS011;37162;41.724;13.346;2023-09-12T09:01:41;2.63;;;2.42;;
51122;SDS011;37162;41.724;13.346;2023-09-12T09:04:08;4.05;;;2.40;;
51122;SDS011;37162;41.724;13.346;2023-09-12T09:06:34;3.30;;;2.60;;
51122;SDS011;37162;41.724;13.346;2023-09-12T09:09:03;3.38;;;2.80;;
51122;SDS011;37162;41.724;13.346;2023-09-12T09:11:30;8.23;;;2.80;;
51122;SDS011;37162;41.724;13.346;2023-09-12T09:13:55;2.83;;;2.50;;
51122;SDS011;37162;41.724;13.346;2023-09-12T09:16:21;2.83;;;2.47;;
51122;SDS011;37162;41.724;13.346;2023-09-12T09:19:04;4.15;;;2.70;;
51122;SDS011;37162;41.724;13.346;2023-09-12T09:21:35;3.08;;;2.70;;
51122;SDS011;37162;41.724;13.346;2023-09-12T09:24:06;5.65;;;2.67;;
51122;SDS011;37162;41.724;13.346;2023-09-12T09:29:07;4.40;;;2.55;;
51122;SDS011;37162;41.724;13.346;2023-09-12T09:31:34;3.42;;;2.53;;
51122;SDS011;37162;41.724;13.346;2023-09-12T09:34:00;2.90;;;2.60;;
51122;SDS011;37162;41.724;13.346;2023-09-12T09:36:26;3.17;;;2.75;;
51122;SDS011;37162;41.724;13.346;2023-09-12T09:38:52;3.63;;;2.80;;
51122;SDS011;37162;41.724;13.346;2023-09-12T09:41:22;3.90;;;2.47;;
51122;SDS011;37162;41.724;13.346;2023-09-12T09:43:51;2.88;;;2.38;;
51122;SDS011;37162;41.724;13.346;2023-09-12T09:46:19;2.55;;;2.17;;
51122;SDS011;37162;41.724;13.346;2023-09-12T09:48:49;6.57;;;2.28;;
51122;SDS011;37162;41.724;13.346;2023-09-12T09:51:15;2.80;;;2.50;;
51122;SDS011;37162;41.724;13.346;2023-09-12T09:53:41;2.83;;;2.45;;
51122;SDS011;37162;41.724;13.346;2023-09-12T09:56:12;3.45;;;2.65;;
51122;SDS011;37162;41.724;13.346;2023-09-12T09:58:52;5.55;;;2.75;;
51122;SDS011;37162;41.724;13.346;2023-09-12T10:01:19;3.65;;;2.53;;
51122;SDS011;37162;41.724;13.346;2023-09-12T10:03:48;2.92;;;2.40;;
51122;SDS011;37162;41.724;13.346;2023-09-12T10:06:15;2.72;;;2.30;;
51122;SDS011;37162;41.724;13.346;2023-09-12T10:08:45;3.13;;;2.70;;
51122;SDS011;37162;41.724;13.346;2023-09-12T10:11:13;3.25;;;2.30;;
51122;SDS011;37162;41.724;13.346;2023-09-12T10:13:41;4.93;;;2.65;;
51122;SDS011;37162;41.724;13.346;2023-09-12T10:16:14;3.15;;;2.35;;
51122;SDS011;37162;41.724;13.346;2023-09-12T10:18:43;4.47;;;2.58;;
51122;SDS011;37162;41.724;13.346;2023-09-12T10:21:15;3.08;;;1.95;;
51122;SDS011;37162;41.724;13.346;2023-09-12T10:23:51;2.75;;;2.50;;
51122;SDS011;37162;41.724;13.346;2023-09-12T10:26:17;3.80;;;2.22;;
51122;SDS011;37162;41.724;13.346;2023-09-12T10:28:43;2.40;;;2.20;;
51122;SDS011;37162;41.724;13.346;2023-09-12T10:31:11;3.78;;;2.47;;
51122;SDS011;37162;41.724;13.346;2023-09-12T10:33:37;3.80;;;2.42;;
51122;SDS011;37162;41.724;13.346;2023-09-12T10:36:03;3.47;;;2.28;;
51122;SDS011;37162;41.724;13.346;2023-09-12T10:38:32;2.47;;;2.28;;
51122;SDS011;37162;41.724;13.346;2023-09-12T10:41:01;2.97;;;2.33;;
51122;SDS011;37162;41.724;13.346;2023-09-12T10:43:28;3.30;;;2.40;;
51122;SDS011;37162;41.724;13.346;2023-09-12T10:45:54;3.17;;;2.53;;
51122;SDS011;37162;41.724;13.346;2023-09-12T10:48:21;2.80;;;2.35;;
51122;SDS011;37162;41.724;13.346;2023-09-12T10:50:47;4.32;;;2.20;;
51122;SDS011;37162;41.724;13.346;2023-09-12T10:53:15;3.00;;;2.40;;
51122;SDS011;37162;41.724;13.346;2023-09-12T10:55:41;2.60;;;2.40;;
51122;SDS011;37162;41.724;13.346;2023-09-12T10:58:09;2.20;;;1.98;;
51122;SDS011;37162;41.724;13.346;2023-09-12T11:00:37;5.05;;;1.90;;
51122;SDS011;37162;41.724;13.346;2023-09-12T11:06:19;2.80;;;2.40;;
51122;SDS011;37162;41.724;13.346;2023-09-12T11:09:00;2.50;;;2.25;;
51122;SDS011;37162;41.724;13.346;2023-09-12T11:11:55;2.78;;;2.22;;
51122;SDS011;37162;41.724;13.346;2023-09-12T11:14:23;3.00;;;2.50;;
51122;SDS011;37162;41.724;13.346;2023-09-12T11:19:45;2.85;;;2.35;;
51122;SDS011;37162;41.724;13.346;2023-09-12T11:22:47;2.30;;;2.00;;
51122;SDS011;37162;41.724;13.346;2023-09-12T11:25:23;3.72;;;2.38;;
51122;SDS011;37162;41.724;13.346;2023-09-12T11:30:16;2.33;;;2.10;;
51122;SDS011;37162;41.724;13.346;2023-09-12T11:32:56;2.40;;;2.20;;
51122;SDS011;37162;41.724;13.346;2023-09-12T11:35:23;2.50;;;2.30;;
51122;SDS011;37162;41.724;13.346;2023-09-12T11:37:50;2.08;;;1.85;;
51122;SDS011;37162;41.724;13.346;2023-09-12T11:40:17;2.45;;;2.20;;
51122;SDS011;37162;41.724;13.346;2023-09-12T11:42:47;3.05;;;2.10;;
51122;SDS011;37162;41.724;13.346;2023-09-12T11:45:14;3.05;;;2.15;;
51122;SDS011;37162;41.724;13.346;2023-09-12T11:47:43;2.35;;;2.10;;
51122;SDS011;37162;41.724;13.346;2023-09-12T11:55:25;4.18;;;2.30;;
51122;SDS011;37162;41.724;13.346;2023-09-12T11:57:51;3.50;;;2.35;;
51122;SDS011;37162;41.724;13.346;2023-09-12T12:00:16;2.78;;;2.05;;
51122;SDS011;37162;41.724;13.346;2023-09-12T12:02:44;4.05;;;2.45;;
51122;SDS011;37162;41.724;13.346;2023-09-12T12:05:11;5.05;;;2.03;;
51122;SDS011;37162;41.724;13.346;2023-09-12T12:07:37;2.47;;;1.98;;
51122;SDS011;37162;41.724;13.346;2023-09-12T12:10:03;2.22;;;1.92;;
51122;SDS011;37162;41.724;13.346;2023-09-12T12:12:29;2.63;;;2.00;;
51122;SDS011;37162;41.724;13.346;2023-09-12T12:14:54;4.55;;;2.25;;
51122;SDS011;37162;41.724;13.346;2023-09-12T12:17:20;2.20;;;2.00;;
51122;SDS011;37162;41.724;13.346;2023-09-12T12:19:46;2.38;;;2.08;;
51122;SDS011;37162;41.724;13.346;2023-09-12T12:22:12;2.47;;;1.70;;
51122;SDS011;37162;41.724;13.346;2023-09-12T12:24:41;1.88;;;1.67;;
51122;SDS011;37162;41.724;13.346;2023-09-12T12:27:09;2.25;;;2.05;;
51122;SDS011;37162;41.724;13.346;2023-09-12T12:29:36;3.10;;;1.70;;
51122;SDS011;37162;41.724;13.346;2023-09-12T12:32:04;2.55;;;1.85;;
51122;SDS011;37162;41.724;13.346;2023-09-12T12:34:31;1.80;;;1.70;;
51122;SDS011;37162;41.724;13.346;2023-09-12T12:36:56;3.45;;;2.35;;
51122;SDS011;37162;41.724;13.346;2023-09-12T12:39:22;4.22;;;1.85;;
51122;SDS011;37162;41.724;13.346;2023-09-12T12:41:51;6.35;;;2.00;;
51122;SDS011;37162;41.724;13.346;2023-09-12T12:44:18;2.58;;;1.88;;
51122;SDS011;37162;41.724;13.346;2023-09-12T12:46:53;2.88;;;2.10;;
51122;SDS011;37162;41.724;13.346;2023-09-12T12:49:19;2.10;;;1.80;;
51122;SDS011;37162;41.724;13.346;2023-09-12T12:51:45;1.92;;;1.83;;
51122;SDS011;37162;41.724;13.346;2023-09-12T12:54:12;2.30;;;1.80;;
51122;SDS011;37162;41.724;13.346;2023-09-12T12:56:38;2.38;;;1.88;;
51122;SDS011;37162;41.724;13.346;2023-09-12T12:59:04;3.03;;;2.15;;
51122;SDS011;37162;41.724;13.346;2023-09-12T13:01:34;2.38;;;1.92;;
51122;SDS011;37162;41.724;13.346;2023-09-12T13:04:01;2.78;;;1.83;;
51122;SDS011;37162;41.724;13.346;2023-09-12T13:06:27;1.73;;;1.60;;
51122;SDS011;37162;41.724;13.346;2023-09-12T13:08:54;1.73;;;1.63;;
51122;SDS011;37162;41.724;13.346;2023-09-12T13:11:22;2.20;;;1.63;;
51122;SDS011;37162;41.724;13.346;2023-09-12T13:13:47;2.78;;;1.65;;
51122;SDS011;37162;41.724;13.346;2023-09-12T13:16:16;2.33;;;1.73;;
51122;SDS011;37162;41.724;13.346;2023-09-12T13:18:42;4.80;;;1.60;;
51122;SDS011;37162;41.724;13.346;2023-09-12T13:21:07;1.80;;;1.70;;
51122;SDS011;37162;41.724;13.346;2023-09-12T13:23:33;2.70;;;1.60;;
51122;SDS011;37162;41.724;13.346;2023-09-12T13:26:00;1.88;;;1.67;;
51122;SDS011;37162;41.724;13.346;2023-09-12T13:28:26;6.25;;;2.15;;
51122;SDS011;37162;41.724;13.346;2023-09-12T13:30:52;2.10;;;1.90;;
51122;SDS011;37162;41.724;13.346;2023-09-12T13:33:18;3.35;;;1.70;;
51122;SDS011;37162;41.724;13.346;2023-09-12T13:35:43;3.20;;;2.00;;
51122;SDS011;37162;41.724;13.346;2023-09-12T13:38:09;1.73;;;1.42;;
51122;SDS011;37162;41.724;13.346;2023-09-12T13:40:38;3.10;;;1.65;;
51122;SDS011;37162;41.724;13.346;2023-09-12T13:43:05;1.85;;;1.75;;
51122;SDS011;37162;41.724;13.346;2023-09-12T13:45:31;1.85;;;1.70;;
51122;SDS011;37162;41.724;13.346;2023-09-12T13:47:57;2.00;;;1.80;;
51122;SDS011;37162;41.724;13.346;2023-09-12T13:50:24;2.00;;;1.58;;
51122;SDS011;37162;41.724;13.346;2023-09-12T13:52:49;1.83;;;1.60;;
51122;SDS011;37162;41.724;13.346;2023-09-12T13:55:15;1.95;;;1.75;;
51122;SDS011;37162;41.724;13.346;2023-09-12T13:57:41;4.75;;;1.52;;
51122;SDS011;37162;41.724;13.346;2023-09-12T14:00:07;1.50;;;1.40;;
51122;SDS011;37162;41.724;13.346;2023-09-12T14:02:33;2.78;;;1.80;;
51122;SDS011;37162;41.724;13.346;2023-09-12T14:04:58;1.85;;;1.63;;
51122;SDS011;37162;41.724;13.346;2023-09-12T14:07:24;1.70;;;1.60;;
51122;SDS011;37162;41.724;13.346;2023-09-12T14:09:49;1.70;;;1.60;;
51122;SDS011;37162;41.724;13.346;2023-09-12T14:12:16;1.83;;;1.63;;
51122;SDS011;37162;41.724;13.346;2023-09-12T14:14:41;1.83;;;1.25;;
51122;SDS011;37162;41.724;13.346;2023-09-12T14:17:07;2.17;;;1.70;;
51122;SDS011;37162;41.724;13.346;2023-09-12T14:19:32;2.05;;;1.33;;
51122;SDS011;37162;41.724;13.346;2023-09-12T14:21:59;1.63;;;1.52;;
51122;SDS011;37162;41.724;13.346;2023-09-12T14:24:24;1.73;;;1.63;;
51122;SDS011;37162;41.724;13.346;2023-09-12T14:26:50;1.77;;;1.60;;
51122;SDS011;37162;41.724;13.346;2023-09-12T14:29:15;3.60;;;1.83;;
51122;SDS011;37162;41.724;13.346;2023-09-12T14:31:41;1.90;;;1.70;;
51122;SDS011;37162;41.724;13.346;2023-09-12T14:34:14;2.47;;;1.67;;
51122;SDS011;37162;41.724;13.346;2023-09-12T14:36:40;1.70;;;1.42;;
51122;SDS011;37162;41.724;13.346;2023-09-12T14:39:05;3.75;;;2.08;;
51122;SDS011;37162;41.724;13.346;2023-09-12T14:41:31;1.52;;;1.42;;
51122;SDS011;37162;41.724;13.346;2023-09-12T14:43:57;1.55;;;1.45;;
51122;SDS011;37162;41.724;13.346;2023-09-12T14:46:22;1.85;;;1.55;;
51122;SDS011;37162;41.724;13.346;2023-09-12T14:48:48;2.00;;;1.55;;
51122;SDS011;37162;41.724;13.346;2023-09-12T14:51:13;4.07;;;1.63;;
51122;SDS011;37162;41.724;13.346;2023-09-12T14:53:38;1.75;;;1.65;;